Time;durP1;ratioP1;P1;durP2;ratioP2;P2;SDS_P1;SDS_P2;PMS_P1;PMS_P2;Temp;Humidity;BMP_temperature;BMP_pressure;BME280_temperature;BME280_humidity;BME280_pressure;Samples;Min_cycle;Max_cycle;Signal;HPM_P1;HPM_P2
2023/12/25 00:02:02;;;;;;;1.27;0.90;;;;;;;10.74;75.85;98401.00;4999402;28;100952;-82
2023/12/25 00:04:27;;;;;;;0.75;0.60;;;;;;;10.84;75.47;98407.31;5021312;27;96803;-82
2023/12/25 00:06:53;;;;;;;1.45;0.80;;;;;;;10.83;75.38;98407.41;5005495;27;97318;-82
2023/12/25 00:09:19;;;;;;;1.05;0.60;;;;;;;10.87;74.97;98414.13;5024217;27;97313;-82
2023/12/25 00:11:45;;;;;;;1.13;0.68;;;;;;;10.86;74.47;98384.44;5020506;28;97559;-81
2023/12/25 00:14:20;;;;;;;0.68;0.50;;;;;;;11.05;74.15;98396.34;4993822;27;96823;-82
2023/12/25 00:16:50;;;;;;;1.45;0.80;;;;;;;10.88;74.20;98355.47;4995827;27;97955;-82
2023/12/25 00:19:18;;;;;;;;;;;;;;;11.04;74.15;98402.53;4989010;27;97714;-82
2023/12/25 00:21:52;;;;;;;1.08;0.47;;;;;;;10.85;73.18;98359.13;5013580;27;99705;-82
2023/12/25 00:24:18;;;;;;;0.77;0.57;;;;;;;11.06;73.44;98395.41;5003170;28;96773;-82
2023/12/25 00:26:43;;;;;;;0.50;0.43;;;;;;;11.16;73.02;98396.47;5016789;27;97122;-82
2023/12/25 00:29:09;;;;;;;1.60;0.60;;;;;;;11.23;72.74;98396.91;5012938;28;101141;-82
2023/12/25 00:31:35;;;;;;;1.40;0.88;;;;;;;11.24;72.33;98403.84;4996489;27;100949;-82
2023/12/25 00:34:01;;;;;;;1.17;0.47;;;;;;;11.21;72.43;98398.78;5026795;27;96800;-82
2023/12/25 00:36:26;;;;;;;1.17;0.70;;;;;;;11.27;71.84;98399.22;5016597;27;97005;-82
2023/12/25 00:38:51;;;;;;;1.08;0.50;;;;;;;11.29;71.73;98412.25;5016574;27;101126;-82
2023/12/25 00:41:18;;;;;;;0.47;0.47;;;;;;;11.38;71.67;98413.44;5033371;27;98464;-82
2023/12/25 00:43:44;;;;;;;1.00;0.73;;;;;;;11.36;71.83;98416.13;5017101;27;96729;-82
2023/12/25 00:46:09;;;;;;;1.30;0.52;;;;;;;11.22;71.37;98374.19;5033570;27;96906;-82
2023/12/25 00:48:34;;;;;;;1.00;0.75;;;;;;;11.38;71.53;98427.41;5016389;27;101449;-82
2023/12/25 00:51:00;;;;;;;1.90;0.50;;;;;;;11.31;71.60;98415.59;5031135;27;97391;-81
2023/12/25 00:53:36;;;;;;;0.93;0.75;;;;;;;11.32;71.50;98405.00;5002360;28;96993;-81
2023/12/25 00:56:05;;;;;;;1.30;0.60;;;;;;;11.31;71.50;98405.97;5016218;27;97052;-82
2023/12/25 00:58:30;;;;;;;1.85;0.75;;;;;;;11.24;71.61;98398.59;4995638;28;97997;-81
2023/12/25 01:00:56;;;;;;;1.00;0.70;;;;;;;11.38;71.77;98416.88;5049156;27;97497;-81
2023/12/25 01:03:22;;;;;;;3.85;1.08;;;;;;;11.46;71.65;98438.22;5033394;27;96752;-82
2023/12/25 01:05:47;;;;;;;0.75;0.55;;;;;;;11.41;71.33;98440.31;5032260;27;96797;-82
2023/12/25 01:08:13;;;;;;;0.90;0.70;;;;;;;11.40;71.31;98443.88;4999680;27;101017;-82
2023/12/25 01:10:38;;;;;;;0.98;0.65;;;;;;;11.39;71.46;98425.59;5012173;28;101307;-82
2023/12/25 01:13:04;;;;;;;1.52;0.70;;;;;;;11.41;71.03;98434.22;5009980;27;96851;-82
2023/12/25 01:15:29;;;;;;;1.88;1.10;;;;;;;11.47;71.16;98432.03;5013871;28;97171;-82
2023/12/25 01:17:55;;;;;;;4.18;1.27;;;;;;;11.53;70.76;98443.91;5017218;27;98042;-82
2023/12/25 01:20:20;;;;;;;3.00;1.35;;;;;;;11.50;70.98;98447.56;5012733;27;100385;-82
2023/12/25 01:22:46;;;;;;;1.00;0.77;;;;;;;11.52;70.74;98444.88;5032532;27;96797;-82
2023/12/25 01:25:11;;;;;;;3.03;1.70;;;;;;;11.51;70.58;98446.63;5013140;27;96801;-81
2023/12/25 01:27:41;;;;;;;1.58;1.15;;;;;;;11.55;70.55;98456.00;5011869;28;100363;-82
2023/12/25 01:30:08;;;;;;;2.35;1.30;;;;;;;11.57;69.95;98437.50;5030237;27;101619;-82
2023/12/25 01:32:34;;;;;;;3.72;1.70;;;;;;;11.57;69.89;98448.00;4996178;28;97696;-81
2023/12/25 01:35:00;;;;;;;2.42;1.30;;;;;;;11.49;70.10;98443.28;5016107;27;96798;-81
2023/12/25 01:37:25;;;;;;;2.28;1.00;;;;;;;11.60;70.48;98450.41;5051317;27;98152;-82
2023/12/25 01:39:51;;;;;;;1.52;0.85;;;;;;;11.56;69.90;98451.59;4998915;27;101555;-82
2023/12/25 01:42:16;;;;;;;1.52;0.93;;;;;;;11.63;70.04;98471.22;5016171;27;96702;-82
2023/12/25 01:44:42;;;;;;;0.95;0.80;;;;;;;11.63;70.38;98467.78;5030468;27;96881;-82
2023/12/25 01:47:08;;;;;;;2.65;1.40;;;;;;;11.61;70.20;98467.88;5015792;27;98190;-82
2023/12/25 01:49:33;;;;;;;2.28;1.30;;;;;;;11.42;70.15;98434.13;5015630;27;101104;-82
2023/12/25 01:51:59;;;;;;;1.63;1.00;;;;;;;11.68;69.95;98479.66;5016577;27;97170;-82
2023/12/25 01:54:25;;;;;;;1.63;0.90;;;;;;;11.61;69.76;98470.50;5016059;27;97200;-82
2023/12/25 01:56:50;;;;;;;2.97;1.40;;;;;;;11.62;69.82;98473.97;5015191;27;101096;-82
2023/12/25 01:59:16;;;;;;;2.20;1.17;;;;;;;11.47;69.15;98446.94;4998089;27;101866;-81
2023/12/25 02:01:41;;;;;;;3.35;1.30;;;;;;;11.48;69.36;98456.50;5048015;27;96766;-81
2023/12/25 02:04:07;;;;;;;2.78;1.20;;;;;;;11.63;69.18;98478.28;5041480;27;96834;-82
2023/12/25 02:06:33;;;;;;;1.95;1.08;;;;;;;11.66;69.02;98486.78;5010918;28;101272;-81
2023/12/25 02:08:59;;;;;;;2.33;1.42;;;;;;;11.65;69.14;98487.75;5014088;27;101683;-82
2023/12/25 02:11:25;;;;;;;3.20;1.88;;;;;;;11.55;68.76;98473.56;5015396;27;97201;-82
2023/12/25 02:13:51;;;;;;;5.30;1.40;;;;;;;11.59;68.61;98477.66;5015436;27;97121;-82
2023/12/25 02:16:16;;;;;;;3.30;0.90;;;;;;;11.69;68.36;98507.66;5016262;27;101054;-82
2023/12/25 02:18:42;;;;;;;4.00;2.10;;;;;;;11.72;68.25;98512.69;5017994;27;101630;-81
2023/12/25 02:21:08;;;;;;;1.50;1.00;;;;;;;11.65;68.27;98503.53;5019258;27;96812;-81
2023/12/25 02:23:37;;;;;;;0.93;0.93;;;;;;;11.70;68.18;98522.44;5033221;27;97483;-81
2023/12/25 02:26:05;;;;;;;4.38;1.50;;;;;;;11.74;68.03;98533.59;5026752;27;98135;-82
2023/12/25 02:28:30;;;;;;;2.38;1.20;;;;;;;11.79;68.16;98549.91;5017524;27;101333;-81
2023/12/25 02:30:56;;;;;;;1.30;0.90;;;;;;;11.71;68.43;98532.00;5035922;27;96813;-81
2023/12/25 02:33:21;;;;;;;0.90;0.60;;;;;;;11.82;68.73;98560.22;5028754;27;96917;-82
2023/12/25 02:35:47;;;;;;;0.93;0.88;;;;;;;11.80;68.31;98548.94;5034708;27;97538;-82
2023/12/25 02:38:12;;;;;;;2.88;1.23;;;;;;;11.70;68.31;98553.16;5035619;27;97443;-81
2023/12/25 02:40:41;;;;;;;1.60;0.75;;;;;;;11.77;68.35;98570.19;5015863;27;97984;-81
2023/12/25 02:43:07;;;;;;;3.40;0.90;;;;;;;11.67;68.66;98546.31;5034163;27;96883;-82
2023/12/25 02:45:33;;;;;;;5.90;1.40;;;;;;;11.79;68.24;98568.31;5017846;27;101540;-81
2023/12/25 02:47:58;;;;;;;2.67;0.98;;;;;;;11.75;68.54;98569.44;5021139;27;97651;-81
2023/12/25 02:50:24;;;;;;;2.28;0.80;;;;;;;11.79;68.09;98579.66;4997229;28;97020;-81
2023/12/25 02:52:49;;;;;;;1.65;0.98;;;;;;;11.78;68.27;98566.63;5012520;28;97397;-81
2023/12/25 02:55:15;;;;;;;2.75;0.70;;;;;;;11.82;68.20;98562.00;5002390;28;101206;-81
2023/12/25 02:57:40;;;;;;;1.17;0.63;;;;;;;11.80;68.42;98580.50;5011924;28;101007;-82
2023/12/25 03:00:06;;;;;;;2.38;0.57;;;;;;;11.68;68.58;98558.50;5010553;28;97368;-82
2023/12/25 03:02:32;;;;;;;1.30;0.70;;;;;;;11.82;68.06;98601.44;5029791;28;97061;-81
2023/12/25 03:04:57;;;;;;;1.13;0.77;;;;;;;11.72;68.99;98577.53;5011408;28;101317;-82
2023/12/25 03:07:23;;;;;;;1.10;0.70;;;;;;;11.78;69.38;98601.66;5030642;28;98341;-82
2023/12/25 03:09:48;;;;;;;1.63;0.70;;;;;;;11.80;68.88;98619.94;5014061;28;96791;-81
2023/12/25 03:12:14;;;;;;;1.08;0.70;;;;;;;11.75;69.40;98608.88;5011884;28;97145;-82
2023/12/25 03:14:40;;;;;;;1.30;0.80;;;;;;;11.73;69.43;98611.63;5022411;28;101268;-82
2023/12/25 03:17:06;;;;;;;1.17;0.63;;;;;;;11.69;69.67;98593.50;5011903;28;101024;-81
2023/12/25 03:19:32;;;;;;;0.80;0.70;;;;;;;11.79;69.45;98615.63;5006582;28;96924;-81
2023/12/25 03:21:57;;;;;;;1.05;0.50;;;;;;;11.77;69.72;98620.13;5032643;28;97904;-81
2023/12/25 03:24:23;;;;;;;1.13;0.75;;;;;;;11.74;69.99;98633.47;5030647;28;98006;-82
2023/12/25 03:26:49;;;;;;;0.73;0.52;;;;;;;11.60;70.22;98608.09;5031037;28;98207;-82
2023/12/25 03:29:15;;;;;;;0.88;0.50;;;;;;;11.61;70.46;98609.81;5009874;28;97299;-81
2023/12/25 03:31:40;;;;;;;0.95;0.68;;;;;;;11.73;70.94;98621.28;5011913;28;97020;-82
2023/12/25 03:34:06;;;;;;;0.90;0.77;;;;;;;11.72;70.68;98620.47;5021247;28;101085;-82
2023/12/25 03:36:32;;;;;;;1.27;0.85;;;;;;;11.72;70.83;98607.31;5014393;28;101353;-81
2023/12/25 03:38:57;;;;;;;0.93;0.60;;;;;;;11.80;70.94;98633.06;4997313;28;97143;-81
2023/12/25 03:41:23;;;;;;;2.35;0.50;;;;;;;11.73;70.78;98629.19;5031822;28;96851;-81
2023/12/25 03:43:48;;;;;;;0.93;0.45;;;;;;;11.66;70.85;98623.47;5013306;28;101604;-82
2023/12/25 03:46:13;;;;;;;1.33;0.77;;;;;;;11.55;71.46;98600.53;5032601;28;97261;-83
2023/12/25 03:48:39;;;;;;;1.27;0.60;;;;;;;11.67;71.47;98613.81;5030143;28;96663;-81
2023/12/25 03:51:05;;;;;;;0.95;0.70;;;;;;;11.57;71.41;98589.91;5030825;28;97226;-81
2023/12/25 03:53:31;;;;;;;1.48;0.60;;;;;;;11.56;71.22;98590.84;5032252;28;97928;-81
2023/12/25 03:56:04;;;;;;;1.58;0.55;;;;;;;11.64;71.58;98606.13;5031377;28;98532;-80
2023/12/25 03:58:29;;;;;;;2.22;0.85;;;;;;;11.61;71.64;98598.44;5013090;28;97332;-81
2023/12/25 04:00:55;;;;;;;2.28;0.80;;;;;;;11.57;72.10;98587.28;4997591;28;96876;-81
2023/12/25 04:03:20;;;;;;;1.70;0.82;;;;;;;11.51;71.94;98598.19;5010371;28;101159;-81
2023/12/25 04:05:46;;;;;;;0.73;0.73;;;;;;;11.54;71.85;98601.44;5027637;28;101575;-82
2023/12/25 04:08:11;;;;;;;6.63;1.23;;;;;;;11.62;71.42;98598.34;5030748;28;97391;-81
2023/12/25 04:10:37;;;;;;;3.60;1.13;;;;;;;11.67;71.26;98608.56;5013549;28;96850;-81
2023/12/25 04:13:03;;;;;;;1.48;0.68;;;;;;;11.66;70.92;98599.81;5028374;28;97622;-81
2023/12/25 04:15:28;;;;;;;1.65;0.80;;;;;;;11.72;70.60;98603.81;5027016;28;97831;-81
2023/12/25 04:17:54;;;;;;;0.82;0.65;;;;;;;11.62;70.47;98611.47;5031368;28;96764;-82
2023/12/25 04:20:20;;;;;;;0.98;0.57;;;;;;;11.63;69.73;98605.25;5031070;27;97132;-82
2023/12/25 04:22:48;;;;;;;0.82;0.55;;;;;;;11.68;69.46;98608.44;5013654;28;101790;-83
2023/12/25 04:25:13;;;;;;;1.45;0.70;;;;;;;11.58;68.69;98578.47;4996402;28;101259;-81
2023/12/25 04:27:39;;;;;;;0.65;0.65;;;;;;;11.74;68.54;98599.31;5010039;28;96778;-82
2023/12/25 04:30:05;;;;;;;1.00;0.80;;;;;;;11.71;68.46;98602.16;5013001;28;98594;-81
2023/12/25 04:32:31;;;;;;;3.88;0.47;;;;;;;11.72;68.01;98583.66;5010466;28;97389;-81
2023/12/25 04:34:57;;;;;;;1.75;0.70;;;;;;;11.75;67.64;98591.34;5027334;28;97911;-81
2023/12/25 04:37:22;;;;;;;1.30;0.60;;;;;;;11.73;67.35;98595.00;5013393;28;96827;-82
2023/12/25 04:39:48;;;;;;;0.38;0.30;;;;;;;11.71;67.31;98573.22;5029339;27;96826;-81
2023/12/25 04:42:13;;;;;;;0.73;0.47;;;;;;;11.75;66.94;98601.00;5013331;28;101151;-81
2023/12/25 04:44:39;;;;;;;3.22;0.65;;;;;;;11.83;67.29;98592.59;5029517;28;101452;-82
2023/12/25 04:47:04;;;;;;;1.90;0.70;;;;;;;11.79;66.60;98582.28;5013604;28;97242;-81
2023/12/25 04:49:31;;;;;;;1.20;0.57;;;;;;;11.78;67.02;98592.94;5012781;28;97157;-82
2023/12/25 04:51:57;;;;;;;0.73;0.60;;;;;;;11.89;66.76;98618.50;5030051;28;98194;-81
2023/12/25 04:54:23;;;;;;;0.88;0.80;;;;;;;11.76;66.06;98594.81;5013372;28;98042;-81
2023/12/25 04:56:49;;;;;;;1.45;0.77;;;;;;;11.95;65.79;98618.09;5013313;28;97128;-81
2023/12/25 04:59:14;;;;;;;1.17;0.47;;;;;;;11.89;66.07;98618.50;5012496;28;97130;-82
2023/12/25 05:01:40;;;;;;;4.25;0.90;;;;;;;11.91;66.02;98608.75;5012449;28;101028;-81
2023/12/25 05:04:08;;;;;;;2.30;0.70;;;;;;;11.90;65.80;98633.38;4996265;28;101270;-81
2023/12/25 05:06:35;;;;;;;0.82;0.52;;;;;;;11.94;65.82;98645.34;5030191;28;97164;-81
2023/12/25 05:09:00;;;;;;;1.33;0.70;;;;;;;11.90;66.68;98647.34;5012630;28;97097;-81
2023/12/25 05:11:26;;;;;;;1.20;0.80;;;;;;;11.89;67.97;98653.53;5029767;28;97588;-81
2023/12/25 05:13:52;;;;;;;0.88;0.68;;;;;;;11.89;69.80;98669.31;5007232;28;101925;-82
2023/12/25 05:16:18;;;;;;;0.45;0.45;;;;;;;11.71;70.77;98641.56;5013184;28;96865;-82
2023/12/25 05:18:45;;;;;;;1.52;0.55;;;;;;;11.69;71.99;98641.69;5013215;28;97159;-81
2023/12/25 05:21:10;;;;;;;1.88;0.60;;;;;;;11.60;72.36;98644.88;5031125;28;97899;-82
2023/12/25 05:23:36;;;;;;;0.65;0.40;;;;;;;11.70;73.09;98645.16;5011742;28;101399;-82
2023/12/25 05:26:01;;;;;;;0.43;0.28;;;;;;;11.61;72.60;98633.44;5012768;28;96753;-82
2023/12/25 05:28:26;;;;;;;0.68;0.50;;;;;;;11.66;71.92;98647.13;5030099;28;97266;-81
2023/12/25 05:30:52;;;;;;;2.28;0.60;;;;;;;11.62;71.71;98652.69;5009277;28;100828;-82
2023/12/25 05:33:19;;;;;;;2.63;0.47;;;;;;;11.62;71.29;98629.88;5019447;28;97324;-81
2023/12/25 05:35:45;;;;;;;2.20;0.55;;;;;;;11.69;71.07;98646.94;5013382;28;97306;-81
2023/12/25 05:38:10;;;;;;;2.47;0.77;;;;;;;11.61;70.13;98632.63;5029672;28;96850;-81
2023/12/25 05:40:36;;;;;;;1.30;0.40;;;;;;;11.72;70.49;98643.25;5008582;28;101017;-82
2023/12/25 05:43:03;;;;;;;2.22;0.93;;;;;;;11.67;69.39;98626.97;5010387;28;97379;-82
2023/12/25 05:45:28;;;;;;;1.20;0.60;;;;;;;11.71;69.31;98646.81;5012661;28;96798;-82
2023/12/25 05:47:54;;;;;;;1.98;0.88;;;;;;;11.71;68.81;98631.06;5012851;28;96938;-81
2023/12/25 05:50:19;;;;;;;2.40;0.80;;;;;;;11.66;68.83;98644.50;5027623;28;98054;-81
2023/12/25 05:52:45;;;;;;;1.83;0.82;;;;;;;11.72;68.71;98636.22;5032628;28;97848;-82
2023/12/25 05:55:11;;;;;;;1.58;0.90;;;;;;;11.70;67.82;98624.97;5015859;28;96820;-82
2023/12/25 05:57:36;;;;;;;1.55;0.65;;;;;;;11.64;67.87;98642.94;5032793;28;97237;-81
2023/12/25 06:00:02;;;;;;;2.97;0.70;;;;;;;11.69;67.49;98644.31;4998230;28;101479;-81
2023/12/25 06:02:38;;;;;;;1.65;0.90;;;;;;;11.65;67.66;98639.34;5029462;28;98706;-81
2023/12/25 06:05:03;;;;;;;1.58;0.85;;;;;;;11.54;66.76;98629.53;5032895;28;96764;-81
2023/12/25 06:07:29;;;;;;;1.55;0.70;;;;;;;11.74;67.10;98655.34;5033505;28;96879;-82
2023/12/25 06:09:54;;;;;;;1.50;0.88;;;;;;;11.66;66.29;98647.13;5015047;28;98034;-82
2023/12/25 06:12:20;;;;;;;1.45;0.70;;;;;;;11.71;66.70;98658.19;5015970;28;98120;-81
2023/12/25 06:14:45;;;;;;;0.68;0.50;;;;;;;11.72;65.71;98638.84;5014988;28;96783;-82
2023/12/25 06:17:11;;;;;;;1.70;0.75;;;;;;;11.73;65.64;98658.09;5016284;28;96937;-82
2023/12/25 06:19:36;;;;;;;2.22;0.82;;;;;;;11.71;65.74;98652.91;5031909;28;97547;-82
2023/12/25 06:22:02;;;;;;;1.05;0.80;;;;;;;11.71;65.99;98668.69;4998719;28;99284;-82
2023/12/25 06:24:27;;;;;;;1.52;0.75;;;;;;;11.74;65.35;98657.13;5015758;28;96966;-80
2023/12/25 06:26:53;;;;;;;1.42;0.82;;;;;;;11.78;66.04;98653.38;5014987;28;96870;-79
2023/12/25 06:29:18;;;;;;;0.85;0.70;;;;;;;11.69;65.85;98631.19;5031623;28;97079;-79
2023/12/25 06:31:47;;;;;;;1.95;0.68;;;;;;;11.72;66.45;98640.63;5015342;28;100763;-80
2023/12/25 06:34:13;;;;;;;1.00;0.65;;;;;;;11.73;66.40;98643.16;5012123;28;96864;-80
2023/12/25 06:36:38;;;;;;;2.35;0.50;;;;;;;11.74;66.89;98638.75;5030229;27;97005;-78
2023/12/25 06:39:03;;;;;;;0.85;0.40;;;;;;;11.73;67.12;98658.09;5030940;28;97646;-81
2023/12/25 06:41:29;;;;;;;1.33;0.65;;;;;;;11.73;67.09;98664.19;5015218;28;101357;-82
2023/12/25 06:43:54;;;;;;;0.88;0.65;;;;;;;11.38;67.58;98621.78;5032226;28;97348;-82
2023/12/25 06:46:20;;;;;;;0.90;0.63;;;;;;;11.68;67.38;98658.38;5015883;28;97299;-82
2023/12/25 06:48:46;;;;;;;1.38;0.55;;;;;;;11.75;67.53;98678.09;5014857;28;97548;-82
2023/12/25 06:51:11;;;;;;;1.73;0.77;;;;;;;11.72;67.80;98680.91;5031905;28;97907;-82
2023/12/25 06:53:37;;;;;;;1.40;0.70;;;;;;;11.77;68.05;98683.22;5033250;27;96604;-82
2023/12/25 06:56:02;;;;;;;1.48;0.57;;;;;;;11.61;68.53;98661.53;5015864;28;97034;-81
2023/12/25 06:58:28;;;;;;;1.05;0.75;;;;;;;11.69;69.52;98673.22;5031015;28;98581;-82
2023/12/25 07:00:53;;;;;;;1.73;0.90;;;;;;;11.71;69.85;98671.31;5031700;28;98526;-82
2023/12/25 07:03:19;;;;;;;1.75;0.88;;;;;;;11.66;69.38;98673.41;5031489;27;96730;-82
2023/12/25 07:05:44;;;;;;;1.60;0.90;;;;;;;11.70;69.92;98674.06;5031941;28;97330;-82
2023/12/25 07:08:10;;;;;;;4.50;1.13;;;;;;;11.54;69.51;98659.25;5014678;28;101083;-81
2023/12/25 07:10:36;;;;;;;1.85;0.52;;;;;;;11.71;69.63;98691.50;5031317;28;97515;-82
2023/12/25 07:13:02;;;;;;;1.15;0.70;;;;;;;11.72;69.43;98706.34;5030331;28;96862;-81
2023/12/25 07:15:28;;;;;;;1.63;0.80;;;;;;;11.72;68.97;98694.06;5028061;28;97466;-82
2023/12/25 07:18:12;;;;;;;0.73;0.50;;;;;;;11.75;69.40;98695.63;4997957;28;101532;-82
2023/12/25 07:20:37;;;;;;;1.27;0.90;;;;;;;11.70;69.41;98702.97;5029896;28;102554;-82
2023/12/25 07:23:03;;;;;;;1.15;0.70;;;;;;;11.71;69.34;98708.13;5014752;28;96797;-81
2023/12/25 07:25:28;;;;;;;1.42;0.60;;;;;;;11.66;69.34;98697.06;5015105;28;96858;-82
2023/12/25 07:27:54;;;;;;;0.73;0.73;;;;;;;11.76;68.83;98702.59;5030281;28;97523;-81
2023/12/25 07:30:19;;;;;;;2.97;1.10;;;;;;;11.82;68.69;98702.19;5030536;28;98039;-81
2023/12/25 07:32:46;;;;;;;1.23;0.80;;;;;;;11.62;68.61;98682.44;5015242;28;97209;-82
2023/12/25 07:35:12;;;;;;;1.27;0.98;;;;;;;11.72;68.05;98690.56;5030802;28;96938;-81
2023/12/25 07:37:37;;;;;;;1.42;1.00;;;;;;;11.99;67.72;98712.47;5030970;28;99461;-82
2023/12/25 07:40:03;;;;;;;2.58;1.00;;;;;;;11.97;67.70;98710.88;5012950;28;101505;-80
2023/12/25 07:42:28;;;;;;;1.27;0.88;;;;;;;11.86;66.97;98702.84;5032129;28;96866;-79
2023/12/25 07:44:54;;;;;;;1.10;0.70;;;;;;;11.99;66.67;98712.47;5032770;28;97059;-79
2023/12/25 07:47:19;;;;;;;2.17;0.90;;;;;;;11.99;66.30;98724.78;5011058;28;98201;-80
2023/12/25 07:49:45;;;;;;;1.38;0.70;;;;;;;11.89;66.64;98708.75;5012597;27;97629;-80
2023/12/25 07:52:10;;;;;;;0.82;0.57;;;;;;;11.93;66.84;98728.66;5017565;27;97016;-80
2023/12/25 07:54:36;;;;;;;1.08;0.63;;;;;;;11.92;66.85;98729.59;5034421;27;98375;-80
2023/12/25 07:57:01;;;;;;;2.67;0.82;;;;;;;11.88;66.88;98729.91;5033941;27;98078;-79
2023/12/25 07:59:27;;;;;;;1.77;1.02;;;;;;;11.99;66.79;98730.06;5051558;27;97409;-80
2023/12/25 08:01:53;;;;;;;1.17;0.68;;;;;;;12.01;66.73;98722.88;5014584;28;97293;-80
2023/12/25 08:04:18;;;;;;;0.88;0.50;;;;;;;11.99;66.28;98724.78;5031862;27;97131;-80
2023/12/25 08:06:44;;;;;;;1.38;0.80;;;;;;;11.92;66.72;98710.34;5014049;28;101595;-80
2023/12/25 08:09:12;;;;;;;1.25;0.60;;;;;;;12.04;66.79;98741.09;5014531;27;100567;-80
2023/12/25 08:11:38;;;;;;;1.35;1.00;;;;;;;11.97;66.45;98753.81;5001136;27;96754;-80
2023/12/25 08:14:03;;;;;;;1.05;0.70;;;;;;;12.07;66.67;98761.09;5028108;27;97435;-79
2023/12/25 08:16:29;;;;;;;2.03;0.88;;;;;;;12.08;66.63;98773.31;5033665;27;97681;-79
2023/12/25 08:18:55;;;;;;;0.82;0.68;;;;;;;11.95;66.65;98757.47;5016043;27;101560;-80
2023/12/25 08:21:20;;;;;;;0.70;0.60;;;;;;;12.04;66.88;98772.66;5034126;27;97249;-79
2023/12/25 08:23:46;;;;;;;1.63;0.98;;;;;;;12.04;66.32;98782.34;5051501;27;96760;-80
2023/12/25 08:26:11;;;;;;;1.08;0.70;;;;;;;12.07;66.94;98777.75;5033992;27;98036;-80
2023/12/25 08:28:40;;;;;;;2.13;0.80;;;;;;;12.11;67.38;98797.63;5027732;28;100722;-79
2023/12/25 08:31:06;;;;;;;2.55;0.85;;;;;;;12.05;68.09;98802.44;5014073;27;97283;-79
2023/12/25 08:33:34;;;;;;;2.03;1.10;;;;;;;12.05;69.20;98815.59;5009418;27;97985;-79
2023/12/25 08:35:59;;;;;;;1.17;0.70;;;;;;;11.94;70.62;98811.84;5010770;28;100823;-80
2023/12/25 08:38:25;;;;;;;1.25;0.50;;;;;;;11.97;71.12;98808.19;5022226;27;99096;-80
2023/12/25 08:40:50;;;;;;;0.68;0.50;;;;;;;11.95;71.32;98810.91;5012578;27;97198;-80
2023/12/25 08:43:16;;;;;;;2.45;0.35;;;;;;;11.83;71.50;98792.41;5021358;27;97346;-79
2023/12/25 08:45:42;;;;;;;0.75;0.45;;;;;;;11.84;71.79;98788.81;5016032;28;97342;-83
2023/12/25 08:48:07;;;;;;;0.38;0.38;;;;;;;11.94;71.48;98790.81;5019323;27;97440;-78
2023/12/25 08:50:33;;;;;;;3.72;0.85;;;;;;;12.06;71.67;98804.97;5012682;27;96876;-77
2023/12/25 08:52:58;;;;;;;1.02;0.45;;;;;;;12.07;71.75;98809.31;5017678;27;97622;-78
2023/12/25 08:55:24;;;;;;;1.98;0.82;;;;;;;12.13;71.37;98827.31;5018342;27;98510;-77
2023/12/25 08:57:49;;;;;;;1.48;0.80;;;;;;;12.13;71.72;98821.19;5022814;28;97361;-77
2023/12/25 09:00:15;;;;;;;0.60;0.60;;;;;;;12.23;71.67;98827.56;5005952;27;97414;-78
2023/12/25 09:02:41;;;;;;;0.98;0.50;;;;;;;12.21;72.34;98835.53;5014044;28;97374;-78
2023/12/25 09:05:07;;;;;;;1.40;0.60;;;;;;;12.09;74.24;98840.75;5011669;28;101303;-82
2023/12/25 09:07:32;;;;;;;0.70;0.60;;;;;;;12.07;74.18;98832.09;4987348;27;101106;-87
2023/12/25 09:09:58;;;;;;;1.08;0.63;;;;;;;11.90;73.71;98830.56;5015020;28;96866;-87
2023/12/25 09:12:23;;;;;;;1.42;0.68;;;;;;;11.84;74.00;98833.53;5020871;27;97223;-88
2023/12/25 09:14:49;;;;;;;1.83;0.90;;;;;;;11.81;74.69;98837.22;5034267;27;96828;-86
2023/12/25 09:17:16;;;;;;;2.30;0.80;;;;;;;11.90;74.54;98838.47;5017741;27;97324;-83
2023/12/25 09:19:42;;;;;;;2.65;1.30;;;;;;;11.79;74.77;98841.72;5033447;27;96745;-85
2023/12/25 09:22:07;;;;;;;1.02;0.70;;;;;;;11.77;75.13;98843.59;5035114;27;96942;-88
2023/12/25 09:24:33;;;;;;;0.60;0.60;;;;;;;11.70;75.47;98834.41;4999925;27;100637;-84
2023/12/25 09:26:58;;;;;;;3.17;0.93;;;;;;;11.74;75.12;98849.03;5027970;27;98145;-88
2023/12/25 09:29:24;;;;;;;2.47;0.77;;;;;;;11.71;75.68;98849.22;4987889;27;96879;-88
2023/12/25 09:31:49;;;;;;;3.22;0.70;;;;;;;11.63;76.29;98862.00;5010667;27;97721;-87
2023/12/25 09:34:15;;;;;;;1.75;1.15;;;;;;;11.68;76.57;98873.91;5002522;27;101585;-84
2023/12/25 09:36:40;;;;;;;2.50;1.13;;;;;;;11.59;76.86;98871.00;5011029;27;98730;-84
2023/12/25 09:39:06;;;;;;;1.20;0.85;;;;;;;11.50;77.16;98854.88;5011086;27;97534;-85
2023/12/25 09:41:32;;;;;;;1.73;1.15;;;;;;;11.32;77.52;98837.59;5030959;27;98115;-89
2023/12/25 09:44:00;;;;;;;1.40;0.90;;;;;;;11.42;77.38;98843.97;5048504;27;97468;-92
2023/12/25 09:46:27;;;;;;;2.20;1.02;;;;;;;11.51;78.09;98848.66;5032591;27;97801;-90
2023/12/25 09:48:54;;;;;;;1.17;0.80;;;;;;;11.50;78.16;98846.16;5015487;27;96924;-90
2023/12/25 09:51:21;;;;;;;2.50;1.23;;;;;;;11.48;77.79;98850.63;5015284;28;97629;-88
2023/12/25 09:53:47;;;;;;;1.02;0.88;;;;;;;11.39;77.90;98825.78;4985909;28;101813;-88
2023/12/25 09:56:15;;;;;;;4.30;1.35;;;;;;;11.59;77.77;98866.59;5016191;28;98261;-88
2023/12/25 09:58:41;;;;;;;4.88;1.35;;;;;;;11.62;78.09;98861.16;5007406;28;98667;-80
2023/12/25 10:01:06;;;;;;;1.10;0.82;;;;;;;11.65;77.17;98860.13;5004406;28;97021;-80
2023/12/25 10:03:37;;;;;;;0.70;0.70;;;;;;;11.72;77.38;98862.28;4995090;28;101531;-80
2023/12/25 10:06:02;;;;;;;1.55;1.00;;;;;;;11.59;77.19;98831.59;4998136;28;97483;-80
2023/12/25 10:08:28;;;;;;;2.65;0.90;;;;;;;11.70;77.16;98869.41;4994242;28;96896;-80
2023/12/25 10:10:57;;;;;;;1.35;0.88;;;;;;;11.72;76.27;98862.28;4988209;28;97339;-80
2023/12/25 10:13:24;;;;;;;1.58;0.98;;;;;;;11.60;75.84;98842.00;4980233;28;101236;-81
2023/12/25 10:15:50;;;;;;;1.30;0.80;;;;;;;11.59;75.60;98828.97;5009902;28;98027;-81
2023/12/25 10:18:16;;;;;;;1.27;1.00;;;;;;;11.68;75.84;98845.00;4976253;28;97308;-86
2023/12/25 10:20:55;;;;;;;1.27;0.80;;;;;;;11.77;75.23;98869.88;5000292;28;97000;-81
2023/12/25 10:23:27;;;;;;;1.23;0.95;;;;;;;11.73;74.78;98871.00;4986404;28;98423;-80
2023/12/25 10:25:52;;;;;;;1.42;0.90;;;;;;;11.74;74.71;98880.59;4973185;28;101295;-80
2023/12/25 10:28:18;;;;;;;0.95;0.90;;;;;;;11.68;74.57;98879.16;4985440;28;98069;-89
2023/12/25 10:30:44;;;;;;;2.47;1.10;;;;;;;11.69;74.18;98880.00;4988083;28;97740;-83
2023/12/25 10:33:13;;;;;;;2.22;0.90;;;;;;;11.62;73.74;98876.91;4986944;28;98270;-82
2023/12/25 10:35:39;;;;;;;1.48;1.00;;;;;;;11.69;73.40;98901.91;5000633;28;101645;-82
2023/12/25 10:38:05;;;;;;;3.97;1.13;;;;;;;11.71;72.79;98902.63;4981793;28;97402;-82
2023/12/25 10:40:32;;;;;;;2.55;1.17;;;;;;;11.69;72.36;98906.28;4981759;28;97246;-82
2023/12/25 10:42:58;;;;;;;1.55;1.00;;;;;;;11.77;72.34;98896.16;5001265;28;101358;-82
2023/12/25 10:45:25;;;;;;;1.65;0.93;;;;;;;11.78;72.17;98908.38;5004065;28;97491;-83
2023/12/25 10:47:57;;;;;;;4.95;1.10;;;;;;;11.80;72.00;98906.50;5003882;28;97079;-83
2023/12/25 10:50:27;;;;;;;2.00;0.88;;;;;;;11.83;71.48;98898.41;5003880;28;96783;-84
2023/12/25 10:52:54;;;;;;;0.63;0.60;;;;;;;11.84;71.65;98900.13;5010406;28;97408;-83
2023/12/25 10:55:42;;;;;;;1.27;0.90;;;;;;;11.93;71.22;98901.38;4998591;28;98155;-83
2023/12/25 10:58:12;;;;;;;1.55;0.90;;;;;;;11.95;71.01;98895.03;5014919;28;96977;-83
2023/12/25 11:00:45;;;;;;;1.67;0.80;;;;;;;11.94;71.36;98893.38;5013873;28;96778;-83
2023/12/25 11:03:15;;;;;;;3.17;1.20;;;;;;;11.98;71.01;98905.41;5001178;28;101032;-83
2023/12/25 11:05:41;;;;;;;1.67;0.90;;;;;;;12.01;70.40;98883.31;5001144;28;97974;-82
2023/12/25 11:08:07;;;;;;;1.50;0.80;;;;;;;12.19;70.80;98905.00;5007782;28;97223;-83
2023/12/25 11:10:33;;;;;;;2.15;1.13;;;;;;;12.32;69.99;98894.53;5021311;28;96826;-82
2023/12/25 11:12:58;;;;;;;4.07;1.70;;;;;;;12.32;69.03;98874.31;5019290;28;97881;-83
2023/12/25 11:15:24;;;;;;;2.53;1.30;;;;;;;12.48;68.70;98887.34;5030031;28;97448;-83
2023/12/25 11:17:50;;;;;;;3.42;1.10;;;;;;;12.46;68.88;98878.72;5031499;28;97116;-83
2023/12/25 11:20:16;;;;;;;1.95;1.20;;;;;;;12.51;68.20;98888.91;5015814;28;96962;-83
2023/12/25 11:22:44;;;;;;;2.60;1.42;;;;;;;12.54;67.69;98891.38;5031572;28;98472;-82
2023/12/25 11:25:14;;;;;;;1.13;0.80;;;;;;;12.40;68.12;98868.56;5011812;28;97988;-83
2023/12/25 11:27:42;;;;;;;3.55;1.63;;;;;;;12.38;68.37;98888.88;5021749;28;98090;-83